Time;durP1;ratioP1;P1;durP2;ratioP2;P2;SDS_P1;SDS_P2;PMS_P1;PMS_P2;Temp;Humidity;BMP_temperature;BMP_pressure;BME280_temperature;BME280_humidity;BME280_pressure;Samples;Min_cycle;Max_cycle;Signal;HPM_P1;HPM_P2
2022/01/03 00:00:25;;;;;;;8.37;3.40;;;11.30;99.90;;;;;;5016384;28;20713;-75
2022/01/03 00:02:54;;;;;;;9.47;3.50;;;11.20;99.90;;;;;;5010838;28;20206;-75
2022/01/03 00:05:26;;;;;;;6.97;3.47;;;11.20;99.90;;;;;;5018562;28;20187;-75
2022/01/03 00:07:53;;;;;;;9.70;3.57;;;11.20;99.90;;;;;;5037840;28;20224;-75
2022/01/03 00:10:21;;;;;;;7.23;3.23;;;11.30;99.90;;;;;;5016462;28;20203;-75
2022/01/03 00:12:50;;;;;;;10.47;3.60;;;11.30;99.90;;;;;;5024413;28;20195;-75
2022/01/03 00:15:19;;;;;;;5.23;3.40;;;11.30;99.90;;;;;;5004622;28;20207;-76
2022/01/03 00:17:48;;;;;;;12.37;3.40;;;11.20;99.90;;;;;;5009713;28;20223;-75
2022/01/03 00:20:16;;;;;;;7.67;3.40;;;11.20;99.90;;;;;;5009116;28;20207;-75
2022/01/03 00:22:49;;;;;;;6.67;3.00;;;11.20;99.90;;;;;;5010448;28;20230;-75
2022/01/03 00:25:18;;;;;;;6.63;2.83;;;11.20;99.90;;;;;;5007618;28;20199;-75
2022/01/03 00:27:50;;;;;;;5.97;3.43;;;11.20;99.90;;;;;;5016859;28;20235;-75
2022/01/03 00:30:21;;;;;;;7.50;3.60;;;11.20;99.90;;;;;;5023427;28;20339;-75
2022/01/03 00:32:51;;;;;;;10.40;3.63;;;11.20;99.90;;;;;;5011973;28;20210;-75
2022/01/03 00:35:19;;;;;;;7.50;3.50;;;11.20;99.90;;;;;;5008590;28;20204;-75
2022/01/03 00:37:49;;;;;;;9.83;3.37;;;11.20;99.90;;;;;;5011437;28;20211;-75
2022/01/03 00:40:19;;;;;;;10.87;3.23;;;11.20;99.90;;;;;;5011122;28;20558;-75
2022/01/03 00:42:47;;;;;;;8.53;3.50;;;11.10;99.90;;;;;;5035294;28;20215;-75
2022/01/03 00:45:14;;;;;;;10.03;3.70;;;11.10;99.90;;;;;;5011570;28;20188;-75
2022/01/03 00:47:42;;;;;;;8.83;3.50;;;11.10;99.90;;;;;;5016526;28;20223;-75
2022/01/03 00:50:15;;;;;;;8.20;3.30;;;11.00;99.90;;;;;;5001721;28;20202;-77
2022/01/03 00:52:43;;;;;;;11.90;3.23;;;11.00;99.90;;;;;;5022632;28;20197;-75
2022/01/03 00:55:12;;;;;;;10.63;4.03;;;11.00;99.90;;;;;;5023534;28;20303;-75
2022/01/03 00:57:56;;;;;;;11.60;3.83;;;10.90;99.90;;;;;;5011545;28;20222;-75
2022/01/03 01:00:24;;;;;;;11.13;3.40;;;10.90;99.90;;;;;;5010374;28;20196;-75
2022/01/03 01:03:15;;;;;;;10.37;3.70;;;10.90;99.90;;;;;;5030590;28;20219;-75
2022/01/03 01:05:46;;;;;;;9.70;3.17;;;10.90;99.90;;;;;;5031689;28;20223;-75
2022/01/03 01:08:18;;;;;;;11.10;3.50;;;10.90;99.90;;;;;;5015535;28;20215;-75
2022/01/03 01:11:08;;;;;;;10.93;3.70;;;10.90;99.90;;;;;;5031157;28;20669;-75
2022/01/03 01:13:39;;;;;;;8.37;3.60;;;10.90;99.90;;;;;;5005347;28;20666;-75
2022/01/03 01:16:09;;;;;;;8.07;3.10;;;10.90;99.90;;;;;;5010504;28;20210;-75
2022/01/03 01:18:45;;;;;;;12.67;3.43;;;10.90;99.90;;;;;;5030753;28;20225;-75
2022/01/03 01:21:43;;;;;;;15.83;4.00;;;10.80;99.90;;;;;;5027821;28;20196;-75
2022/01/03 01:24:10;;;;;;;11.20;2.80;;;10.80;99.90;;;;;;5019682;28;20647;-75
2022/01/03 01:29:23;;;;;;;12.73;3.80;;;10.70;99.90;;;;;;5006237;28;20206;-75
2022/01/03 01:31:52;;;;;;;16.97;3.67;;;10.80;99.90;;;;;;5018884;28;20196;-75
2022/01/03 01:34:27;;;;;;;16.17;3.60;;;10.70;99.90;;;;;;5014813;28;20200;-75
2022/01/03 01:36:59;;;;;;;14.17;3.87;;;10.70;99.90;;;;;;5016108;28;20212;-75
2022/01/03 01:39:30;;;;;;;10.07;3.00;;;10.70;99.90;;;;;;5024649;28;20195;-75
2022/01/03 01:42:07;;;;;;;13.13;3.63;;;10.80;99.90;;;;;;5019000;28;20230;-75
2022/01/03 01:44:47;;;;;;;12.73;3.30;;;10.80;99.90;;;;;;5020648;28;20220;-75
2022/01/03 01:47:15;;;;;;;13.17;4.37;;;10.80;99.90;;;;;;5021414;28;20689;-75
2022/01/03 01:49:45;;;;;;;13.60;4.30;;;10.80;99.90;;;;;;5023275;28;20212;-75
2022/01/03 01:52:19;;;;;;;18.27;4.40;;;10.80;99.90;;;;;;5005229;28;20204;-75
2022/01/03 01:54:54;;;;;;;15.87;3.90;;;10.90;99.90;;;;;;5009947;28;20195;-75
2022/01/03 01:57:37;;;;;;;19.50;4.43;;;10.80;99.90;;;;;;5008926;28;20226;-75
2022/01/03 02:00:08;;;;;;;8.03;3.13;;;10.90;99.90;;;;;;5024066;28;20203;-75
2022/01/03 02:02:46;;;;;;;14.73;3.70;;;10.90;99.90;;;;;;5022000;28;20574;-75
2022/01/03 02:05:30;;;;;;;14.97;3.40;;;10.90;99.90;;;;;;5010866;28;20199;-75
2022/01/03 02:08:11;;;;;;;13.50;4.70;;;10.90;99.90;;;;;;5007460;28;20251;-75
2022/01/03 02:10:42;;;;;;;19.03;4.60;;;10.90;99.90;;;;;;5019318;28;20195;-75
2022/01/03 02:13:12;;;;;;;12.47;3.70;;;10.90;99.90;;;;;;5016100;28;20199;-75
2022/01/03 02:15:45;;;;;;;15.93;4.00;;;10.90;99.90;;;;;;5020651;28;20202;-75
2022/01/03 02:18:12;;;;;;;16.93;4.03;;;10.90;99.90;;;;;;5021401;28;20315;-75
2022/01/03 02:20:41;;;;;;;10.10;3.13;;;10.90;99.90;;;;;;5029144;28;20216;-75
2022/01/03 02:23:11;;;;;;;13.70;4.03;;;10.90;99.90;;;;;;5030824;28;20220;-76
2022/01/03 02:25:42;;;;;;;10.23;3.17;;;10.90;99.90;;;;;;5012186;28;20199;-76
2022/01/03 02:28:10;;;;;;;14.43;4.53;;;10.80;99.90;;;;;;5010442;28;20227;-76
2022/01/03 02:30:38;;;;;;;12.70;4.27;;;10.80;99.90;;;;;;5028716;28;20208;-76
2022/01/03 02:33:07;;;;;;;15.03;3.83;;;10.80;99.90;;;;;;5014979;28;20176;-76
2022/01/03 02:35:36;;;;;;;15.63;3.07;;;10.90;99.90;;;;;;5032413;28;20223;-77
2022/01/03 02:38:06;;;;;;;18.13;4.57;;;10.90;99.90;;;;;;5026636;28;20220;-76
2022/01/03 02:40:34;;;;;;;12.37;3.63;;;10.80;99.90;;;;;;5030272;28;20195;-76
2022/01/03 02:43:01;;;;;;;14.33;3.70;;;10.90;99.90;;;;;;5033981;28;20215;-76
2022/01/03 02:45:30;;;;;;;12.10;3.20;;;10.90;99.90;;;;;;5029964;28;20211;-76
2022/01/03 02:48:02;;;;;;;13.40;4.50;;;10.90;99.90;;;;;;5014425;28;20220;-76
2022/01/03 02:50:32;;;;;;;12.10;3.80;;;10.90;99.90;;;;;;5025473;28;20676;-76
2022/01/03 02:52:59;;;;;;;11.13;3.30;;;10.80;99.90;;;;;;5022658;28;20206;-76
2022/01/03 02:55:28;;;;;;;16.17;3.17;;;10.80;99.90;;;;;;5028200;28;20204;-76
2022/01/03 02:58:06;;;;;;;12.07;3.60;;;10.80;99.90;;;;;;5027231;28;20206;-76
2022/01/03 03:00:35;;;;;;;11.77;3.50;;;10.80;99.90;;;;;;5022647;28;20195;-76
2022/01/03 03:03:04;;;;;;;14.07;3.50;;;10.80;99.90;;;;;;5008972;28;20733;-76
2022/01/03 03:05:32;;;;;;;16.67;4.40;;;10.80;99.90;;;;;;5012522;28;20196;-76
2022/01/03 03:07:59;;;;;;;12.00;3.40;;;10.80;99.90;;;;;;5000279;28;20219;-76
2022/01/03 03:10:28;;;;;;;15.13;3.33;;;10.80;99.90;;;;;;5011516;28;20207;-76
2022/01/03 03:13:00;;;;;;;15.03;3.63;;;10.70;99.90;;;;;;5035097;28;20200;-76
2022/01/03 03:15:30;;;;;;;13.27;3.43;;;10.70;99.90;;;;;;5010529;28;20218;-76
2022/01/03 03:17:58;;;;;;;12.47;3.10;;;10.70;99.90;;;;;;5015315;28;20708;-76
2022/01/03 03:20:27;;;;;;;9.97;3.10;;;10.70;99.90;;;;;;5017492;28;20199;-76
2022/01/03 03:22:56;;;;;;;14.73;3.47;;;10.70;99.90;;;;;;5029796;28;20199;-76
2022/01/03 03:25:29;;;;;;;11.10;3.20;;;10.70;99.90;;;;;;5031734;28;20204;-76
2022/01/03 03:28:00;;;;;;;12.70;4.27;;;10.60;99.90;;;;;;5022585;28;20216;-76
2022/01/03 03:30:31;;;;;;;13.90;3.23;;;10.60;99.90;;;;;;5028807;28;20222;-76
2022/01/03 03:33:04;;;;;;;14.07;3.37;;;10.60;99.90;;;;;;5009220;28;20195;-76
2022/01/03 03:35:33;;;;;;;11.47;2.93;;;10.60;99.90;;;;;;5012990;28;20195;-76
2022/01/03 03:38:02;;;;;;;11.53;2.70;;;10.50;99.90;;;;;;5027179;28;20215;-76
2022/01/03 03:40:31;;;;;;;16.73;4.00;;;10.60;99.90;;;;;;5020282;28;20203;-76
2022/01/03 03:42:59;;;;;;;9.70;2.87;;;10.50;99.90;;;;;;5012449;28;20192;-76
2022/01/03 03:45:27;;;;;;;12.47;2.90;;;10.50;99.90;;;;;;5011665;28;20201;-76
2022/01/03 03:47:57;;;;;;;10.73;2.93;;;10.50;99.90;;;;;;5023969;28;20219;-76
2022/01/03 03:50:27;;;;;;;12.33;2.93;;;10.50;99.90;;;;;;5026051;28;20212;-76
2022/01/03 03:52:57;;;;;;;14.03;3.87;;;10.60;99.90;;;;;;5023193;28;20681;-76
2022/01/03 03:55:24;;;;;;;13.67;3.17;;;10.60;99.90;;;;;;5017206;28;20545;-76
2022/01/03 03:57:53;;;;;;;13.97;3.40;;;10.60;99.90;;;;;;5022736;28;20227;-77
2022/01/03 04:01:05;;;;;;;10.63;3.47;;;10.60;99.90;;;;;;5020159;28;20216;-76
2022/01/03 04:03:33;;;;;;;12.37;3.67;;;10.50;99.90;;;;;;5011087;28;20216;-76
2022/01/03 04:06:01;;;;;;;10.03;2.83;;;10.60;99.90;;;;;;5029137;28;20195;-76
2022/01/03 04:08:29;;;;;;;14.13;3.10;;;10.60;99.90;;;;;;5032506;28;20219;-76
2022/01/03 04:10:56;;;;;;;13.90;3.27;;;10.60;99.90;;;;;;5021398;28;20195;-76
2022/01/03 04:13:25;;;;;;;15.73;3.43;;;10.60;99.90;;;;;;5026649;28;20216;-76
2022/01/03 04:15:52;;;;;;;16.93;3.60;;;10.60;99.90;;;;;;5031453;28;20191;-76
2022/01/03 04:18:21;;;;;;;9.53;3.00;;;10.60;99.90;;;;;;5022813;28;20215;-76
2022/01/03 04:20:48;;;;;;;19.60;3.40;;;10.60;99.90;;;;;;5019744;28;20195;-76
2022/01/03 04:23:16;;;;;;;13.10;3.20;;;10.60;99.90;;;;;;5010167;28;20199;-76
2022/01/03 04:25:44;;;;;;;13.87;3.53;;;10.60;99.90;;;;;;5010773;28;20187;-76
2022/01/03 04:28:12;;;;;;;14.17;3.00;;;10.60;99.90;;;;;;5015552;28;20215;-76
2022/01/03 04:30:40;;;;;;;12.20;3.20;;;10.60;99.90;;;;;;5027751;28;20199;-76
2022/01/03 04:33:08;;;;;;;11.73;2.90;;;10.60;99.90;;;;;;5009682;28;20187;-76
2022/01/03 04:35:35;;;;;;;11.07;2.90;;;10.70;99.90;;;;;;5010574;28;20176;-76
2022/01/03 04:38:03;;;;;;;10.93;3.20;;;10.60;99.90;;;;;;5014120;28;20842;-76
2022/01/03 04:40:32;;;;;;;14.30;3.73;;;10.60;99.90;;;;;;5016044;28;20207;-76
2022/01/03 04:43:00;;;;;;;13.73;2.97;;;10.60;99.90;;;;;;5009659;28;20219;-76
2022/01/03 04:45:28;;;;;;;13.30;3.30;;;10.60;99.90;;;;;;5000070;28;20220;-76
2022/01/03 04:47:58;;;;;;;14.37;3.53;;;10.50;99.90;;;;;;5031970;28;20676;-76
2022/01/03 04:50:26;;;;;;;9.93;2.77;;;10.60;99.90;;;;;;5025921;28;20192;-76
2022/01/03 04:52:54;;;;;;;12.63;2.93;;;10.50;99.90;;;;;;5009327;28;20195;-76
2022/01/03 04:55:21;;;;;;;9.40;2.73;;;10.50;99.90;;;;;;5026385;28;20650;-76
2022/01/03 04:57:50;;;;;;;13.03;3.40;;;10.50;99.90;;;;;;5022681;28;20737;-76
2022/01/03 05:00:18;;;;;;;13.17;3.47;;;10.50;99.90;;;;;;5010078;28;20195;-76
2022/01/03 05:02:47;;;;;;;14.37;3.00;;;10.50;99.90;;;;;;5021057;28;20200;-76
2022/01/03 05:05:16;;;;;;;12.83;3.57;;;10.40;99.90;;;;;;5024889;28;20227;-76
2022/01/03 05:07:43;;;;;;;11.37;3.20;;;10.40;99.90;;;;;;5031919;28;20223;-76
2022/01/03 05:10:17;;;;;;;10.70;3.17;;;10.40;99.90;;;;;;5030833;28;20210;-76
2022/01/03 05:12:45;;;;;;;11.77;3.13;;;10.40;99.90;;;;;;5027792;28;20199;-76
2022/01/03 05:15:12;;;;;;;13.67;3.90;;;10.40;99.90;;;;;;5027759;28;20674;-76
2022/01/03 05:17:40;;;;;;;12.43;3.43;;;10.30;99.90;;;;;;5027265;28;20227;-76
2022/01/03 05:20:08;;;;;;;12.70;3.37;;;10.30;99.90;;;;;;5024271;28;20199;-76
2022/01/03 05:22:37;;;;;;;16.40;3.20;;;10.30;99.90;;;;;;5008080;28;20196;-76
2022/01/03 05:25:06;;;;;;;15.60;3.77;;;10.30;99.90;;;;;;5006797;28;20219;-76
2022/01/03 05:27:34;;;;;;;12.70;3.17;;;10.30;99.90;;;;;;5028835;28;20219;-76
2022/01/03 05:30:02;;;;;;;13.57;3.33;;;10.30;99.90;;;;;;5026566;28;20207;-76
2022/01/03 05:32:32;;;;;;;10.53;2.77;;;10.30;99.90;;;;;;5026534;28;20222;-76
2022/01/03 05:35:00;;;;;;;11.17;3.33;;;10.20;99.90;;;;;;5015989;28;20188;-76
2022/01/03 05:37:28;;;;;;;14.87;3.00;;;10.20;99.90;;;;;;5024098;28;20220;-76
2022/01/03 05:39:56;;;;;;;13.70;3.03;;;10.20;99.90;;;;;;5027356;28;20195;-76
2022/01/03 05:42:24;;;;;;;13.90;3.43;;;10.20;99.90;;;;;;5022265;28;20211;-76
2022/01/03 05:44:52;;;;;;;13.93;4.00;;;10.20;99.90;;;;;;5019318;28;20207;-76
2022/01/03 05:47:27;;;;;;;14.60;3.43;;;10.20;99.90;;;;;;5024405;28;20224;-76
2022/01/03 05:49:55;;;;;;;8.53;2.73;;;10.20;99.90;;;;;;5019900;28;20191;-76
2022/01/03 05:52:22;;;;;;;10.33;2.53;;;10.20;99.90;;;;;;5023184;28;20206;-76
2022/01/03 05:54:52;;;;;;;17.63;4.37;;;10.20;99.90;;;;;;5022842;28;20671;-76
2022/01/03 05:57:21;;;;;;;10.60;3.57;;;10.20;99.90;;;;;;5024338;28;20862;-76
2022/01/03 05:59:51;;;;;;;12.20;2.87;;;10.20;99.90;;;;;;5019113;28;20650;-76
2022/01/03 06:02:19;;;;;;;10.77;3.00;;;10.20;99.90;;;;;;5014402;28;20199;-76
2022/01/03 06:04:58;;;;;;;12.60;3.33;;;10.30;99.90;;;;;;5032723;28;20210;-76
2022/01/03 06:07:26;;;;;;;12.03;3.43;;;10.30;99.90;;;;;;5025915;28;20228;-76
2022/01/03 06:09:53;;;;;;;18.20;3.47;;;10.30;99.90;;;;;;5033045;28;20198;-76
2022/01/03 06:12:22;;;;;;;16.43;4.20;;;10.30;99.90;;;;;;5024135;28;20200;-76
2022/01/03 06:14:54;;;;;;;15.40;2.90;;;10.30;99.90;;;;;;5023916;28;20189;-76
2022/01/03 06:17:22;;;;;;;14.27;2.80;;;10.30;99.90;;;;;;5027084;28;20219;-76
2022/01/03 06:19:53;;;;;;;8.67;2.60;;;10.30;99.90;;;;;;5027315;28;20193;-76
2022/01/03 06:22:24;;;;;;;10.03;2.83;;;10.30;99.90;;;;;;5023027;28;20203;-76
2022/01/03 06:24:57;;;;;;;10.00;2.70;;;10.30;99.90;;;;;;5033797;28;20582;-76
2022/01/03 06:27:26;;;;;;;13.10;3.10;;;10.30;99.90;;;;;;5031050;28;20227;-76
2022/01/03 06:29:54;;;;;;;11.50;3.03;;;10.30;99.90;;;;;;5007666;28;20674;-76
2022/01/03 06:32:21;;;;;;;11.00;2.70;;;10.30;99.90;;;;;;5011716;28;20199;-76
2022/01/03 06:34:51;;;;;;;12.50;2.60;;;10.30;99.90;;;;;;5008146;28;20196;-76
2022/01/03 06:37:19;;;;;;;18.00;3.43;;;10.30;99.90;;;;;;5007131;28;20227;-76
2022/01/03 06:40:14;;;;;;;15.63;4.03;;;10.30;99.90;;;;;;5025325;28;20200;-77
2022/01/03 06:42:43;;;;;;;8.27;2.63;;;10.30;99.90;;;;;;5009058;28;20200;-77
2022/01/03 06:45:11;;;;;;;11.50;3.13;;;10.50;99.90;;;;;;5009574;28;20234;-77
2022/01/03 06:47:53;;;;;;;;;;;;;;;;;;;;;
2022/01/03 06:50:23;;;;;;;15.83;3.73;;;10.50;99.90;;;;;;5027764;28;20200;-76
2022/01/03 06:52:51;;;;;;;10.03;3.10;;;10.40;99.90;;;;;;5014461;28;20207;-76
2022/01/03 06:55:19;;;;;;;15.07;3.80;;;10.40;99.90;;;;;;5012927;28;20196;-75
2022/01/03 06:58:03;;;;;;;14.47;4.10;;;10.30;99.90;;;;;;5011147;28;20223;-76
2022/01/03 07:00:31;;;;;;;10.53;3.17;;;10.40;99.90;;;;;;5028912;28;20196;-76
2022/01/03 07:02:58;;;;;;;14.03;3.27;;;10.30;99.90;;;;;;5014504;28;20193;-76
2022/01/03 07:05:26;;;;;;;10.57;3.23;;;10.40;99.90;;;;;;5022952;28;20215;-76
2022/01/03 07:07:53;;;;;;;12.43;2.83;;;10.40;99.90;;;;;;5026091;28;20212;-76
2022/01/03 07:10:20;;;;;;;17.10;3.37;;;10.40;99.90;;;;;;5027645;28;20207;-76
2022/01/03 07:12:50;;;;;;;14.27;4.00;;;10.40;99.90;;;;;;5010167;28;20210;-76
2022/01/03 07:20:51;;;;;;;13.73;3.10;;;10.40;99.90;;;;;;4993251;28;20526;-76
2022/01/03 07:23:32;;;;;;;11.30;2.87;;;10.40;99.90;;;;;;5010977;28;20544;-77
2022/01/03 07:26:11;;;;;;;11.87;2.87;;;10.40;99.90;;;;;;5014859;28;20226;-76
2022/01/03 07:28:38;;;;;;;9.83;2.90;;;10.40;99.90;;;;;;5000365;28;20215;-75
2022/01/03 07:31:07;;;;;;;14.03;3.93;;;10.40;99.90;;;;;;5005232;28;20713;-75
2022/01/03 07:33:40;;;;;;;9.23;2.70;;;10.40;99.90;;;;;;5015516;28;20665;-75
2022/01/03 07:36:09;;;;;;;14.40;3.57;;;10.40;99.90;;;;;;5003686;28;20203;-75
2022/01/03 07:38:36;;;;;;;11.23;2.83;;;10.40;99.90;;;;;;5025512;28;20582;-76
2022/01/03 07:41:04;;;;;;;9.87;3.10;;;10.30;99.90;;;;;;5008688;28;20218;-76
2022/01/03 07:43:32;;;;;;;10.17;3.37;;;10.30;99.90;;;;;;5011823;28;20218;-75
2022/01/03 07:46:00;;;;;;;17.50;4.03;;;10.40;99.90;;;;;;5011186;28;20221;-75
2022/01/03 07:48:28;;;;;;;13.27;3.83;;;10.40;99.90;;;;;;5026392;28;20243;-77
2022/01/03 07:50:56;;;;;;;16.17;3.57;;;10.40;99.90;;;;;;5015748;28;20199;-75
2022/01/03 07:53:23;;;;;;;11.63;3.57;;;10.40;99.90;;;;;;5006082;28;20204;-75
2022/01/03 07:55:50;;;;;;;14.70;3.80;;;10.40;99.90;;;;;;5009292;28;20696;-75
2022/01/03 07:58:18;;;;;;;12.50;3.30;;;10.40;99.90;;;;;;5022451;28;20236;-75
2022/01/03 08:00:46;;;;;;;9.87;3.23;;;10.40;99.90;;;;;;5010438;28;20541;-73
2022/01/03 08:03:13;;;;;;;15.40;3.47;;;10.40;99.90;;;;;;5027824;28;20204;-73
2022/01/03 08:05:42;;;;;;;10.57;3.00;;;10.40;99.90;;;;;;5012543;28;20207;-74
2022/01/03 08:08:21;;;;;;;12.00;2.77;;;10.50;99.90;;;;;;5027666;28;20343;-74
2022/01/03 08:10:48;;;;;;;7.73;2.70;;;10.50;99.90;;;;;;5027641;28;20210;-74
2022/01/03 08:13:16;;;;;;;10.53;2.97;;;10.50;99.90;;;;;;5008475;28;20200;-74
2022/01/03 08:15:43;;;;;;;8.87;2.80;;;10.50;99.90;;;;;;5017294;28;20200;-73
2022/01/03 08:18:11;;;;;;;8.33;2.70;;;10.50;99.90;;;;;;5025480;28;20246;-74
2022/01/03 08:24:02;;;;;;;9.80;2.93;;;10.50;99.90;;;;;;5012387;28;20179;-73
2022/01/03 08:26:30;;;;;;;7.90;2.60;;;10.50;99.90;;;;;;5006899;28;20208;-74
2022/01/03 08:28:57;;;;;;;11.03;2.77;;;10.50;99.90;;;;;;5010682;28;20220;-76
2022/01/03 08:31:25;;;;;;;11.67;3.40;;;10.30;99.90;;;;;;5013497;28;20187;-75
2022/01/03 08:33:53;;;;;;;10.97;3.37;;;10.20;99.90;;;;;;5011599;28;20196;-75
2022/01/03 08:36:21;;;;;;;10.77;3.37;;;10.20;99.90;;;;;;5012435;28;20188;-74
2022/01/03 08:38:48;;;;;;;17.37;3.13;;;10.20;99.90;;;;;;5027705;28;20235;-75
2022/01/03 08:41:23;;;;;;;12.93;3.03;;;10.20;99.90;;;;;;5015842;28;20180;-75
2022/01/03 08:43:51;;;;;;;8.33;2.80;;;10.10;99.90;;;;;;5009692;28;20200;-76
2022/01/03 08:46:19;;;;;;;11.03;2.77;;;10.10;99.90;;;;;;4994493;28;20227;-74
2022/01/03 08:48:46;;;;;;;13.03;3.60;;;10.20;99.90;;;;;;5008812;28;20220;-74
2022/01/03 08:51:13;;;;;;;13.30;3.90;;;10.20;99.90;;;;;;5026768;28;20199;-74
2022/01/03 08:53:41;;;;;;;11.83;3.33;;;10.20;99.90;;;;;;5027336;28;20693;-74
2022/01/03 08:56:08;;;;;;;11.67;3.10;;;10.20;99.90;;;;;;5009158;28;20203;-74
2022/01/03 08:58:37;;;;;;;11.93;3.33;;;10.30;99.90;;;;;;5010967;28;20311;-74
2022/01/03 09:01:17;;;;;;;7.40;3.63;;;10.30;99.90;;;;;;5010332;28;20204;-75
2022/01/03 09:03:50;;;;;;;15.80;4.27;;;10.30;99.90;;;;;;5025001;28;20192;-78
2022/01/03 09:06:22;;;;;;;10.30;3.10;;;10.40;99.90;;;;;;5014544;28;20204;-75
2022/01/03 09:08:49;;;;;;;13.27;3.30;;;10.40;99.90;;;;;;5004017;28;20226;-77
2022/01/03 09:11:17;;;;;;;9.53;3.03;;;10.30;99.90;;;;;;5015511;28;20199;-76
2022/01/03 09:13:46;;;;;;;13.83;4.10;;;10.40;99.90;;;;;;5014738;28;20199;-75
2022/01/03 09:16:13;;;;;;;14.80;4.10;;;10.40;99.90;;;;;;5025957;28;20199;-75
2022/01/03 09:18:41;;;;;;;12.87;2.97;;;10.40;99.90;;;;;;5019889;28;20215;-75
2022/01/03 09:21:10;;;;;;;16.33;3.97;;;10.40;99.90;;;;;;5013941;28;20208;-77
2022/01/03 09:23:42;;;;;;;16.20;4.40;;;10.50;99.90;;;;;;5033907;28;20210;-76
2022/01/03 09:28:57;;;;;;;9.13;3.97;;;10.50;99.90;;;;;;4999095;28;20581;-75
2022/01/03 09:31:27;;;;;;;11.07;3.53;;;10.50;99.90;;;;;;5015560;28;20196;-75
2022/01/03 09:33:57;;;;;;;9.83;3.30;;;10.50;99.90;;;;;;4994271;28;20218;-77
2022/01/03 09:36:26;;;;;;;8.00;3.93;;;10.50;99.90;;;;;;5016494;28;20547;-75
2022/01/03 09:39:01;;;;;;;13.73;4.53;;;10.60;99.90;;;;;;5002884;28;20222;-75
2022/01/03 09:41:32;;;;;;;11.77;3.93;;;10.60;99.90;;;;;;4998140;28;20208;-74
2022/01/03 09:44:04;;;;;;;13.30;4.03;;;10.70;99.90;;;;;;4997601;28;20192;-76
2022/01/03 09:46:35;;;;;;;12.70;4.37;;;10.60;99.90;;;;;;5016371;28;20214;-76
2022/01/03 09:49:11;;;;;;;11.70;3.73;;;10.70;99.90;;;;;;5017679;28;20215;-75
2022/01/03 09:51:42;;;;;;;11.37;3.87;;;10.70;99.90;;;;;;5018691;28;20689;-74
2022/01/03 09:54:13;;;;;;;15.33;4.47;;;10.70;99.90;;;;;;4998861;28;20686;-74
2022/01/03 09:56:42;;;;;;;12.17;4.23;;;10.70;99.90;;;;;;5019052;28;20191;-74
2022/01/03 09:59:12;;;;;;;9.37;3.53;;;10.80;99.90;;;;;;5008241;28;20192;-75
2022/01/03 10:01:40;;;;;;;13.90;4.17;;;10.80;99.90;;;;;;5020488;28;20848;-76
2022/01/03 10:04:09;;;;;;;12.43;4.23;;;10.90;99.90;;;;;;5017862;28;20200;-74
2022/01/03 10:06:37;;;;;;;9.83;3.47;;;10.80;99.90;;;;;;5008503;28;20215;-75
2022/01/03 10:09:05;;;;;;;10.53;3.60;;;10.80;99.90;;;;;;5004105;28;20677;-75
2022/01/03 10:11:32;;;;;;;11.70;3.67;;;10.80;99.90;;;;;;5022402;28;20211;-74
2022/01/03 10:14:00;;;;;;;10.93;3.30;;;10.80;99.90;;;;;;5002949;28;20203;-76
2022/01/03 10:16:29;;;;;;;16.17;4.47;;;10.80;99.90;;;;;;5022723;28;20204;-75
2022/01/03 10:18:58;;;;;;;9.00;3.10;;;10.90;99.90;;;;;;5004282;28;20669;-76
2022/01/03 10:21:53;;;;;;;11.30;3.37;;;11.00;99.90;;;;;;5018554;28;20215;-76
2022/01/03 10:24:32;;;;;;;15.40;4.00;;;11.00;99.90;;;;;;5006120;28;20655;-77
2022/01/03 10:27:12;;;;;;;9.03;3.03;;;11.10;99.90;;;;;;5005458;28;20223;-75
2022/01/03 10:29:41;;;;;;;10.60;3.83;;;11.10;99.90;;;;;;5021464;28;20405;-75
2022/01/03 10:32:12;;;;;;;10.90;3.53;;;11.10;99.90;;;;;;5022134;28;20203;-75
2022/01/03 10:34:39;;;;;;;13.13;3.93;;;11.00;99.90;;;;;;5004465;28;20206;-77
2022/01/03 10:37:12;;;;;;;11.07;3.23;;;11.00;99.90;;;;;;5016166;28;20216;-77
2022/01/03 10:39:40;;;;;;;11.90;3.23;;;11.10;99.90;;;;;;5004695;28;20199;-77
2022/01/03 10:42:15;;;;;;;8.73;3.43;;;11.10;99.90;;;;;;5006228;28;20192;-76
2022/01/03 10:44:44;;;;;;;11.83;3.20;;;11.10;99.90;;;;;;5007115;28;20199;-76
2022/01/03 10:47:15;;;;;;;11.00;3.20;;;11.20;99.90;;;;;;5009128;28;20223;-76
2022/01/03 10:49:44;;;;;;;13.47;3.43;;;11.40;99.90;;;;;;5011336;28;20203;-76
2022/01/03 10:52:29;;;;;;;10.40;3.43;;;11.40;99.90;;;;;;5017948;28;20211;-77
2022/01/03 10:55:12;;;;;;;10.40;2.80;;;11.50;99.90;;;;;;5030666;28;20210;-77
2022/01/03 10:57:55;;;;;;;11.10;3.10;;;11.70;99.90;;;;;;5017886;28;20219;-77
2022/01/03 11:00:28;;;;;;;13.77;3.50;;;11.70;99.90;;;;;;5026998;28;20216;-77
2022/01/03 11:03:23;;;;;;;7.80;3.03;;;11.70;99.90;;;;;;5013696;28;20214;-77
2022/01/03 11:05:54;;;;;;;14.77;3.60;;;11.80;99.90;;;;;;5013433;28;20191;-76
2022/01/03 11:11:35;;;;;;;12.80;3.77;;;11.70;99.90;;;;;;5030152;28;20557;-77
2022/01/03 11:14:03;;;;;;;9.80;3.40;;;11.50;99.90;;;;;;5026790;28;20215;-76
2022/01/03 11:16:34;;;;;;;11.20;2.80;;;11.50;99.90;;;;;;5017304;28;20222;-77
2022/01/03 11:19:04;;;;;;;9.00;3.87;;;11.50;99.90;;;;;;5020028;28;20569;-76
2022/01/03 11:21:33;;;;;;;10.30;3.23;;;11.50;99.90;;;;;;5022055;28;20207;-75
2022/01/03 11:24:08;;;;;;;12.23;3.17;;;11.40;99.90;;;;;;5032319;28;20200;-76
2022/01/03 11:26:40;;;;;;;8.93;2.87;;;11.40;99.90;;;;;;5013750;28;20204;-76
2022/01/03 11:29:08;;;;;;;13.03;3.27;;;11.40;99.90;;;;;;5040309;28;20230;-76
2022/01/03 11:31:38;;;;;;;13.33;3.47;;;11.30;99.90;;;;;;5021102;28;20207;-76
2022/01/03 11:34:09;;;;;;;13.67;3.60;;;11.30;99.90;;;;;;5019780;28;20211;-77
2022/01/03 11:36:42;;;;;;;13.33;3.20;;;11.30;99.90;;;;;;5045168;28;20218;-76
2022/01/03 11:39:11;;;;;;;9.57;2.93;;;11.30;99.90;;;;;;5033303;28;20210;-76
2022/01/03 11:41:41;;;;;;;12.70;3.47;;;11.40;99.90;;;;;;5013198;28;20211;-76
2022/01/03 11:44:12;;;;;;;14.13;3.50;;;11.40;99.90;;;;;;5016945;28;20210;-76
2022/01/03 11:46:43;;;;;;;12.97;3.43;;;11.30;99.90;;;;;;5009794;28;20207;-76
2022/01/03 11:49:12;;;;;;;9.47;3.03;;;11.30;99.90;;;;;;5002412;28;20212;-76
2022/01/03 11:51:40;;;;;;;10.90;4.30;;;11.30;99.90;;;;;;5018090;28;20195;-76
2022/01/03 11:54:18;;;;;;;11.20;3.80;;;11.30;99.90;;;;;;5020477;28;20199;-77
2022/01/03 11:56:50;;;;;;;12.30;3.50;;;11.40;99.90;;;;;;5033726;28;20199;-77
2022/01/03 11:59:34;;;;;;;10.33;3.10;;;11.30;99.90;;;;;;5014232;28;20200;-77
2022/01/03 12:04:58;;;;;;;10.70;3.33;;;11.40;99.90;;;;;;4999807;28;20202;-77
2022/01/03 12:07:25;;;;;;;14.63;3.90;;;11.40;99.90;;;;;;5015325;28;20562;-77
2022/01/03 12:09:54;;;;;;;9.17;3.10;;;11.40;99.90;;;;;;5009552;28;20216;-77
2022/01/03 12:12:30;;;;;;;13.03;3.60;;;11.40;99.90;;;;;;4997313;28;20227;-77
2022/01/03 12:15:00;;;;;;;9.13;3.00;;;11.50;99.90;;;;;;5011461;28;20196;-77
2022/01/03 12:17:43;;;;;;;12.77;3.27;;;11.50;99.90;;;;;;5020555;28;20235;-77
2022/01/03 12:20:12;;;;;;;9.97;3.30;;;11.50;99.90;;;;;;5014181;28;20557;-77
2022/01/03 12:22:49;;;;;;;11.87;2.87;;;11.50;99.90;;;;;;5014716;28;20196;-77
2022/01/03 12:25:26;;;;;;;11.53;3.33;;;11.50;99.90;;;;;;5010709;28;20207;-77
2022/01/03 12:27:57;;;;;;;15.37;3.80;;;11.50;99.90;;;;;;4995341;28;20237;-77
2022/01/03 12:30:30;;;;;;;11.63;2.90;;;11.50;99.90;;;;;;5023866;28;20215;-77
2022/01/03 12:33:25;;;;;;;15.50;3.37;;;11.50;99.90;;;;;;5018543;28;20200;-76
2022/01/03 12:36:19;;;;;;;7.80;3.33;;;11.50;99.90;;;;;;5019034;28;20200;-77
2022/01/03 12:39:06;;;;;;;9.03;2.77;;;11.50;99.90;;;;;;5019165;28;20219;-77
2022/01/03 12:41:42;;;;;;;9.93;2.83;;;11.50;99.90;;;;;;5014009;28;20200;-75
2022/01/03 12:44:10;;;;;;;10.43;2.70;;;11.50;99.90;;;;;;5016321;28;20207;-76
2022/01/03 12:46:38;;;;;;;10.10;3.27;;;11.50;99.90;;;;;;5005548;28;20207;-76
2022/01/03 12:49:24;;;;;;;11.00;3.50;;;11.50;99.90;;;;;;5021433;28;20207;-76
2022/01/03 12:52:14;;;;;;;10.87;2.93;;;11.50;99.90;;;;;;5009195;28;20207;-77
2022/01/03 12:54:43;;;;;;;12.47;3.63;;;11.50;99.90;;;;;;5023595;28;20199;-77
2022/01/03 12:57:15;;;;;;;10.90;3.23;;;11.50;99.90;;;;;;5011536;28;20720;-77
2022/01/03 12:59:43;;;;;;;9.77;2.60;;;11.40;99.90;;;;;;5019921;28;20199;-77
2022/01/03 13:02:31;;;;;;;8.93;3.40;;;11.40;99.90;;;;;;5027086;28;20188;-77
2022/01/03 13:05:02;;;;;;;10.27;3.37;;;11.40;99.90;;;;;;5026000;28;20200;-77
2022/01/03 13:07:31;;;;;;;7.47;3.43;;;11.40;99.90;;;;;;5015977;28;20226;-77
2022/01/03 13:09:58;;;;;;;9.30;3.17;;;11.30;99.90;;;;;;5033376;28;20222;-77
2022/01/03 13:12:26;;;;;;;7.80;2.87;;;11.20;99.90;;;;;;5029170;28;20210;-77
2022/01/03 13:15:01;;;;;;;12.90;3.07;;;11.00;99.90;;;;;;5005888;28;20527;-77
2022/01/03 13:17:29;;;;;;;10.23;2.47;;;10.90;99.90;;;;;;5016911;28;20589;-76
2022/01/03 13:20:01;;;;;;;8.50;2.63;;;10.90;99.90;;;;;;5021895;28;20204;-76